createdAt,value
2018-09-10T00:00:30.454Z,77.23
2018-09-10T00:01:10.901Z,77.13
2018-09-10T00:01:51.390Z,76.84
2018-09-10T00:02:31.875Z,77.04
2018-09-10T00:03:12.345Z,77.04
2018-09-10T00:03:52.843Z,77.23
2018-09-10T00:04:33.356Z,77.61
2018-09-10T00:05:13.891Z,77.23
2018-09-10T00:05:54.401Z,77.33
2018-09-10T00:06:34.817Z,77.71
2018-09-10T00:07:15.318Z,77.51
2018-09-10T00:07:55.831Z,77.33
2018-09-10T00:08:36.262Z,77.61
2018-09-10T00:09:16.731Z,77.33
2018-09-10T00:09:57.321Z,77.61
2018-09-10T00:10:37.864Z,77.67
2018-09-10T00:11:18.319Z,77.42
2018-09-10T00:11:58.822Z,77.42
2018-09-10T00:12:39.336Z,77.61
2018-09-10T00:13:19.796Z,77.42
2018-09-10T00:14:00.289Z,77.67
2018-09-10T00:14:40.772Z,77.81
2018-09-10T00:15:21.238Z,77.76
2018-09-10T00:16:01.767Z,77.76
2018-09-10T00:16:42.227Z,78.25
2018-09-10T00:17:22.796Z,78.34
2018-09-10T00:18:03.282Z,78.06
2018-09-10T00:18:43.754Z,77.76
2018-09-10T00:19:24.292Z,77.76
2018-09-10T00:20:04.735Z,77.86
2018-09-10T00:20:45.249Z,77.48
2018-09-10T00:21:25.735Z,77.61
2018-09-10T00:22:06.225Z,77.67
2018-09-10T00:22:46.739Z,77.29
2018-09-10T00:23:27.243Z,77.61
2018-09-10T00:24:07.786Z,77.42
2018-09-10T00:24:48.273Z,77.61
2018-09-10T00:25:28.729Z,77.33
2018-09-10T00:26:09.320Z,77.23
2018-09-10T00:26:49.818Z,77.42
2018-09-10T00:27:30.343Z,77.58
2018-09-10T00:28:10.847Z,77.48
2018-09-10T00:28:52.176Z,77.58
2018-09-10T00:29:32.664Z,77.86
2018-09-10T00:30:13.132Z,77.67
2018-09-10T00:30:53.612Z,78.25
2018-09-10T00:31:34.091Z,78.25
2018-09-10T00:32:14.589Z,77.76
2018-09-10T00:32:55.091Z,78.06
2018-09-10T00:33:35.606Z,78.06
2018-09-10T00:34:16.093Z,77.86
2018-09-10T00:34:56.608Z,77.96
2018-09-10T00:35:37.080Z,78.25
2018-09-10T00:36:17.626Z,78.44
2018-09-10T00:36:58.124Z,78.25
2018-09-10T00:37:38.600Z,78.44
2018-09-10T00:38:19.146Z,78.25
2018-09-10T00:38:59.617Z,78.53
2018-09-10T00:39:40.073Z,78.53
2018-09-10T00:40:20.614Z,78.44
2018-09-10T00:41:01.036Z,78.53
2018-09-10T00:41:41.588Z,78.34
2018-09-10T00:42:22.056Z,78.25
2018-09-10T00:43:02.568Z,78.06
2018-09-10T00:43:43.085Z,78.06
2018-09-10T00:44:23.627Z,78.15
2018-09-10T00:45:04.116Z,78.25
2018-09-10T00:45:44.588Z,78.73
2018-09-10T00:46:25.104Z,78.92
2018-09-10T00:47:05.560Z,78.92
2018-09-10T00:47:46.081Z,78.25
2018-09-10T00:48:26.545Z,78.63
2018-09-10T00:49:07.086Z,78.83
2018-09-10T00:49:47.572Z,78.83
2018-09-10T00:50:28.115Z,79.02
2018-09-10T00:51:08.599Z,78.83
2018-09-10T00:51:49.148Z,78.92
2018-09-10T00:52:29.560Z,78.83
2018-09-10T00:53:10.087Z,78.63
2018-09-10T00:53:50.591Z,78.63
2018-09-10T00:54:31.023Z,79.11
2018-09-10T00:55:11.582Z,78.88
2018-09-10T00:55:52.036Z,78.69
2018-09-10T00:56:32.521Z,78.63
2018-09-10T00:57:13.001Z,78.34
2018-09-10T00:57:53.448Z,78.44
2018-09-10T00:58:33.940Z,78.34
2018-09-10T00:59:14.466Z,78.83
2018-09-10T00:59:54.913Z,78.63
2018-09-10T01:00:35.383Z,78.44
2018-09-10T01:01:15.867Z,78.83
2018-09-10T01:01:56.429Z,78.34
2018-09-10T01:02:36.900Z,78.44
2018-09-10T01:03:17.365Z,78.25
2018-09-10T01:03:57.872Z,77.29
2018-09-10T01:04:38.366Z,77.38
2018-09-10T01:05:18.833Z,77.67
2018-09-10T01:05:59.318Z,77.38
2018-09-10T01:06:39.840Z,77.67
2018-09-10T01:07:20.337Z,77.58
2018-09-10T01:08:00.790Z,77.73
2018-09-10T01:08:41.299Z,77.38
2018-09-10T01:09:21.779Z,77.48
2018-09-10T01:10:02.264Z,77.58
2018-09-10T01:10:42.778Z,77.44
2018-09-10T01:11:23.255Z,77.48
2018-09-10T01:12:03.722Z,77.38
2018-09-10T01:12:44.198Z,77.53
2018-09-10T01:13:24.722Z,77.76
2018-09-10T01:14:05.174Z,77.29
2018-09-10T01:14:45.709Z,77.29
2018-09-10T01:15:26.167Z,77.63
2018-09-10T01:16:06.660Z,77.44
2018-09-10T01:16:47.150Z,77.19
2018-09-10T01:17:27.614Z,76.96
2018-09-10T01:18:08.148Z,77.48
2018-09-10T01:18:48.712Z,77.38
2018-09-10T01:19:29.206Z,77.53
2018-09-10T01:20:09.676Z,77.15
2018-09-10T01:20:50.260Z,77.58
2018-09-10T01:21:30.717Z,77.53
2018-09-10T01:22:11.218Z,77.53
2018-09-10T01:22:51.745Z,77.73
2018-09-10T01:23:32.237Z,77.53
2018-09-10T01:24:12.719Z,77.76
2018-09-10T01:24:53.165Z,77.48
2018-09-10T01:25:33.701Z,77.34
2018-09-10T01:26:14.159Z,77.63
2018-09-10T01:26:54.662Z,77.48
2018-09-10T01:27:35.133Z,77.53
2018-09-10T01:28:15.608Z,77.25
2018-09-10T01:28:56.074Z,77.15
2018-09-10T01:29:36.614Z,77.73
2018-09-10T01:30:17.148Z,77.73
2018-09-10T01:30:57.612Z,77.73
2018-09-10T01:31:38.040Z,77.63
2018-09-10T01:32:18.507Z,77.73
2018-09-10T01:32:58.981Z,77.38
2018-09-10T01:33:39.516Z,77.48
2018-09-10T01:34:19.989Z,77.34
2018-09-10T01:35:00.461Z,78.11
2018-09-10T01:35:40.956Z,78.34
2018-09-10T01:36:21.413Z,78.69
2018-09-10T01:37:01.949Z,79.46
2018-09-10T01:37:42.405Z,79.65
2018-09-10T01:38:22.884Z,80.04
2018-09-10T01:39:03.402Z,80.42
2018-09-10T01:39:43.947Z,80.61
2018-09-10T01:40:24.400Z,80.71
2018-09-10T01:41:04.933Z,80.8
2018-09-10T01:41:45.373Z,80.32
2018-09-10T01:42:25.880Z,80.51
2018-09-10T01:43:06.396Z,80.8
2018-09-10T01:43:46.847Z,81.09
2018-09-10T01:44:27.355Z,80.8
2018-09-10T01:45:07.815Z,80.99
2018-09-10T01:45:48.299Z,80.99
2018-09-10T01:46:28.779Z,80.8
2018-09-10T01:47:09.275Z,80.42
2018-09-10T01:47:49.773Z,79.94
2018-09-10T01:48:30.320Z,79.55
2018-09-10T01:49:10.840Z,79.55
2018-09-10T01:49:51.303Z,78.21
2018-09-10T01:50:31.777Z,77.34
2018-09-10T01:51:12.280Z,77.73
2018-09-10T01:51:52.809Z,77.53
2018-09-10T01:52:33.214Z,77.06
2018-09-10T01:53:13.724Z,76.67
2018-09-10T01:53:54.193Z,77.44
2018-09-10T01:54:34.749Z,77.25
2018-09-10T01:55:15.177Z,77.06
2018-09-10T01:55:55.683Z,76.96
2018-09-10T01:56:36.188Z,76.77
2018-09-10T01:57:16.701Z,76.86
2018-09-10T01:57:57.168Z,76.39
2018-09-10T01:58:37.629Z,76.96
2018-09-10T01:59:18.160Z,76.29
2018-09-10T01:59:58.618Z,76.29
2018-09-10T02:00:39.080Z,76.29
2018-09-10T02:01:19.586Z,76.29
2018-09-10T02:02:00.191Z,76.48
2018-09-10T02:02:40.583Z,76.29
2018-09-10T02:03:21.120Z,75.9
2018-09-10T02:04:01.662Z,75.62
2018-09-10T02:04:42.090Z,75.52
2018-09-10T02:05:22.603Z,75.81
2018-09-10T02:06:03.088Z,75.23
2018-09-10T02:06:43.622Z,75.52
2018-09-10T02:07:24.132Z,75.42
2018-09-10T02:08:04.672Z,75.52
2018-09-10T02:08:45.178Z,75.9
2018-09-10T02:09:25.725Z,75.71
2018-09-10T02:10:06.169Z,75.23
2018-09-10T02:10:46.746Z,75.42
2018-09-10T02:11:27.229Z,75.42
2018-09-10T02:12:07.731Z,75.52
2018-09-10T02:12:48.234Z,75.52
2018-09-10T02:13:28.715Z,75.42
2018-09-10T02:14:09.215Z,75.32
2018-09-10T02:14:49.726Z,75.62
2018-09-10T02:15:30.191Z,75.2
2018-09-10T02:16:10.684Z,75.38
2018-09-10T02:16:51.237Z,75.52
2018-09-10T02:17:31.726Z,75.2
2018-09-10T02:18:12.277Z,75.87
2018-09-10T02:18:52.705Z,75.87
2018-09-10T02:19:33.182Z,75.67
2018-09-10T02:20:13.824Z,76.15
2018-09-10T02:20:54.185Z,75.77
2018-09-10T02:21:34.727Z,75.48
2018-09-10T02:22:15.162Z,75.38
2018-09-10T02:22:55.658Z,76.15
2018-09-10T02:23:36.194Z,76.06
2018-09-10T02:24:16.622Z,76.06
2018-09-10T02:24:57.148Z,75.96
2018-09-10T02:25:37.664Z,76.15
2018-09-10T02:26:18.105Z,76.25
2018-09-10T02:26:58.644Z,75.87
2018-09-10T02:27:39.193Z,76.25
2018-09-10T02:28:19.736Z,76.34
2018-09-10T02:29:00.059Z,76.25
2018-09-10T02:29:40.550Z,76.44
2018-09-10T02:30:21.110Z,76.44
2018-09-10T02:31:01.511Z,76.25
2018-09-10T02:31:42.014Z,76.34
2018-09-10T02:32:22.522Z,76.25
2018-09-10T02:33:03.044Z,76.44
2018-09-10T02:33:43.558Z,76.64
2018-09-10T02:34:24.063Z,76.25
2018-09-10T02:35:04.555Z,76.44
2018-09-10T02:35:45.019Z,76.44
2018-09-10T02:36:25.524Z,76.82
2018-09-10T02:37:06.007Z,76.34
2018-09-10T02:37:46.500Z,76.82
2018-09-10T02:38:27.043Z,76.92
2018-09-10T02:39:07.497Z,76.92
2018-09-10T02:39:47.972Z,76.73
2018-09-10T02:40:28.477Z,76.92
2018-09-10T02:41:08.963Z,76.64
2018-09-10T02:41:49.411Z,77.31
2018-09-10T02:42:30.108Z,76.92
2018-09-10T02:43:10.607Z,76.64
2018-09-10T02:43:51.127Z,77.01
2018-09-10T02:44:31.603Z,77.31
2018-09-10T02:45:12.123Z,76.92
2018-09-10T02:45:52.609Z,76.64
2018-09-10T02:46:33.106Z,76.64
2018-09-10T02:47:13.601Z,76.64
2018-09-10T02:47:54.063Z,76.34
2018-09-10T02:48:34.597Z,76.54
2018-09-10T02:49:15.080Z,76.34
2018-09-10T02:49:55.562Z,76.44
2018-09-10T02:50:36.035Z,76.64
2018-09-10T02:51:16.546Z,77.21
2018-09-10T02:51:56.993Z,77.11
2018-09-10T02:52:37.480Z,77.11
2018-09-10T02:53:17.932Z,77.69
2018-09-10T02:53:58.419Z,77.59
2018-09-10T02:54:38.958Z,77.5
2018-09-10T02:55:19.510Z,77.69
2018-09-10T02:55:59.903Z,77.59
2018-09-10T02:56:40.399Z,77.11
2018-09-10T02:57:20.965Z,77.21
2018-09-10T02:58:01.383Z,77.11
2018-09-10T02:58:41.899Z,77.69
2018-09-10T02:59:22.370Z,77.5
2018-09-10T03:00:02.917Z,77.59
2018-09-10T03:00:43.371Z,77.5
2018-09-10T03:01:23.931Z,77.5
2018-09-10T03:02:04.394Z,77.5
2018-09-10T03:02:44.879Z,77.78
2018-09-10T03:03:25.362Z,77.78
2018-09-10T03:04:05.849Z,77.59
2018-09-10T03:04:46.355Z,77.69
2018-09-10T03:05:26.852Z,77.59
2018-09-10T03:06:07.355Z,77.59
2018-09-10T03:06:47.884Z,77.59
2018-09-10T03:07:28.546Z,77.21
2018-09-10T03:08:08.853Z,77.31
2018-09-10T03:08:49.395Z,77.98
2018-09-10T03:09:29.956Z,77.59
2018-09-10T03:10:10.448Z,77.69
2018-09-10T03:10:50.979Z,78.17
2018-09-10T03:11:31.459Z,77.59
2018-09-10T03:12:11.921Z,78.08
2018-09-10T03:12:52.412Z,78.27
2018-09-10T03:13:33.052Z,78.27
2018-09-10T03:14:13.587Z,78.36
2018-09-10T03:14:54.075Z,78.08
2018-09-10T03:15:34.582Z,78.27
2018-09-10T03:16:15.010Z,78.17
2018-09-10T03:16:55.476Z,78.17
2018-09-10T03:17:35.994Z,78.17
2018-09-10T03:18:16.464Z,78.36
2018-09-10T03:18:57.010Z,78.27
2018-09-10T03:19:37.576Z,78.17
2018-09-10T03:20:18.081Z,78.08
2018-09-10T03:20:58.523Z,77.98
2018-09-10T03:21:39.014Z,78.36
2018-09-10T03:22:19.518Z,78.84
2018-09-10T03:23:00.000Z,78.65
2018-09-10T03:23:40.511Z,78.84
2018-09-10T03:24:21.011Z,78.65
2018-09-10T03:25:01.468Z,78.65
2018-09-10T03:25:41.939Z,78.8
2018-09-10T03:26:22.456Z,78.42
2018-09-10T03:27:02.931Z,78.84
2018-09-10T03:27:43.456Z,79.09
2018-09-10T03:28:23.938Z,79.13
2018-09-10T03:29:04.423Z,78.45
2018-09-10T03:29:44.944Z,78.75
2018-09-10T03:30:25.706Z,78.65
2018-09-10T03:31:06.185Z,78.65
2018-09-10T03:31:46.697Z,78.65
2018-09-10T03:32:27.285Z,78.27
2018-09-10T03:33:07.735Z,78.84
2018-09-10T03:33:48.214Z,78.94
2018-09-10T03:34:28.726Z,78.65
2018-09-10T03:35:09.233Z,78.84
2018-09-10T03:35:49.730Z,78.75
2018-09-10T03:36:30.291Z,78.65
2018-09-10T03:37:10.754Z,78.65
2018-09-10T03:37:51.261Z,78.55
2018-09-10T03:38:31.723Z,79.03
2018-09-10T03:39:12.172Z,79.03
2018-09-10T03:39:52.635Z,79.42
2018-09-10T03:40:33.156Z,79.52
2018-09-10T03:41:13.738Z,79.32
2018-09-10T03:41:54.215Z,79.71
2018-09-10T03:42:34.714Z,79.8
2018-09-10T03:43:15.175Z,79.8
2018-09-10T03:43:55.711Z,79.71
2018-09-10T03:44:36.167Z,79.9
2018-09-10T03:45:16.682Z,79.52
2018-09-10T03:45:57.621Z,80.09
2018-09-10T03:46:38.132Z,80.66
2018-09-10T03:47:18.803Z,79.99
2018-09-10T03:47:59.127Z,80.73
2018-09-10T03:48:39.664Z,80.05
2018-09-10T03:49:20.101Z,80.19
2018-09-10T03:50:00.620Z,79.8
2018-09-10T03:50:41.450Z,80.28
2018-09-10T03:51:22.050Z,79.8
2018-09-10T03:52:02.598Z,79.9
2018-09-10T03:52:43.233Z,79.71
2018-09-10T03:53:23.706Z,79.86
2018-09-10T03:54:04.198Z,79.28
2018-09-10T03:54:44.695Z,79.52
2018-09-10T03:55:25.156Z,79.32
2018-09-10T03:56:05.941Z,79.38
2018-09-10T03:56:46.266Z,78.94
2018-09-10T03:57:26.737Z,78.75
2018-09-10T03:58:07.212Z,79.03
2018-09-10T03:58:47.733Z,78.94
2018-09-10T03:59:28.195Z,79.03
2018-09-10T04:00:08.706Z,79.09
2018-09-10T04:00:49.270Z,78.8
2018-09-10T04:01:29.773Z,78.84
2018-09-10T04:02:10.245Z,78.99
2018-09-10T04:02:50.727Z,79.09
2018-09-10T04:03:31.656Z,78.45
2018-09-10T04:04:12.144Z,78.8
2018-09-10T04:04:52.654Z,79.38
2018-09-10T04:05:33.141Z,78.84
2018-09-10T04:06:13.682Z,78.99
2018-09-10T04:06:54.152Z,79.03
2018-09-10T04:07:34.647Z,79.09
2018-09-10T04:08:15.186Z,79.09
2018-09-10T04:08:55.812Z,78.9
2018-09-10T04:09:36.294Z,79.22
2018-09-10T04:10:16.809Z,78.99
2018-09-10T04:10:57.303Z,79.57
2018-09-10T04:11:37.809Z,79.28
2018-09-10T04:12:18.266Z,78.9
2018-09-10T04:12:58.818Z,78.7
2018-09-10T04:13:39.481Z,78.9
2018-09-10T04:14:19.899Z,78.8
2018-09-10T04:15:00.406Z,79.28
2018-09-10T04:15:40.887Z,78.8
2018-09-10T04:16:21.449Z,78.9
2018-09-10T04:17:01.927Z,78.99
2018-09-10T04:17:42.383Z,79.38
2018-09-10T04:18:22.860Z,79.38
2018-09-10T04:19:03.367Z,79.38
2018-09-10T04:19:43.846Z,79.57
2018-09-10T04:20:24.346Z,79.47
2018-09-10T04:21:04.839Z,79.47
2018-09-10T04:21:45.343Z,79.76
2018-09-10T04:22:25.859Z,79.76
2018-09-10T04:23:06.315Z,79.47
2018-09-10T04:23:46.816Z,79.76
2018-09-10T04:24:27.288Z,79.52
2018-09-10T04:25:07.849Z,79.42
2018-09-10T04:25:48.327Z,80.05
2018-09-10T04:26:28.831Z,79.67
2018-09-10T04:27:09.263Z,79.67
2018-09-10T04:27:49.749Z,79.57
2018-09-10T04:28:30.290Z,79.47
2018-09-10T04:29:10.809Z,79.67
2018-09-10T04:29:51.336Z,79.86
2018-09-10T04:30:31.855Z,79.86
2018-09-10T04:31:12.344Z,79.28
2018-09-10T04:31:52.879Z,79.47
2018-09-10T04:32:33.394Z,79.57
2018-09-10T04:33:13.987Z,79.67
2018-09-10T04:33:54.468Z,79.47
2018-09-10T04:34:34.991Z,79.38
2018-09-10T04:35:15.438Z,79.38
2018-09-10T04:35:55.963Z,79.38
2018-09-10T04:36:36.463Z,79.09
2018-09-10T04:37:16.977Z,78.9
2018-09-10T04:37:57.503Z,78.9
2018-09-10T04:38:37.987Z,78.99
2018-09-10T04:39:18.541Z,78.7
2018-09-10T04:39:59.001Z,78.8
2018-09-10T04:40:39.506Z,79.38
2018-09-10T04:41:20.008Z,79.09
2018-09-10T04:42:00.533Z,78.61
2018-09-10T04:42:40.985Z,78.65
2018-09-10T04:43:21.510Z,78.7
2018-09-10T04:44:02.014Z,78.65
2018-09-10T04:44:42.495Z,78.52
2018-09-10T04:45:23.043Z,78.7
2018-09-10T04:46:03.505Z,78.8
2018-09-10T04:46:44.043Z,78.8
2018-09-10T04:47:24.501Z,78.42
2018-09-10T04:48:05.005Z,78.52
2018-09-10T04:48:45.489Z,78.42
2018-09-10T04:49:25.993Z,78.7
2018-09-10T04:50:06.618Z,78.52
2018-09-10T04:50:47.150Z,78.7
2018-09-10T04:51:27.596Z,78.94
2018-09-10T04:52:08.152Z,78.42
2018-09-10T04:52:48.629Z,78.8
2018-09-10T04:53:30.117Z,78.94
2018-09-10T04:54:10.731Z,78.7
2018-09-10T04:54:51.234Z,78.32
2018-09-10T04:55:31.693Z,78.65
2018-09-10T04:56:12.202Z,78.42
2018-09-10T04:56:52.696Z,78.75
2018-09-10T04:57:33.260Z,78.94
2018-09-10T04:58:13.796Z,78.75
2018-09-10T04:58:54.511Z,78.52
2018-09-10T04:59:35.031Z,79.19
2018-09-10T05:00:15.537Z,78.8
2018-09-10T05:00:56.164Z,79.38
2018-09-10T05:01:36.651Z,78.9
2018-09-10T05:02:17.238Z,78.84
2018-09-10T05:02:57.715Z,78.7
2018-09-10T05:03:38.336Z,78.9
2018-09-10T05:04:19.138Z,78.9
2018-09-10T05:04:59.581Z,78.8
2018-09-10T05:05:40.121Z,79.61
2018-09-10T05:06:20.609Z,79.38
2018-09-10T05:07:01.131Z,78.9
2018-09-10T05:07:41.608Z,78.9
2018-09-10T05:08:22.117Z,78.84
2018-09-10T05:09:02.627Z,79.09
2018-09-10T05:09:43.123Z,79.09
2018-09-10T05:10:23.655Z,79.19
2018-09-10T05:11:04.245Z,78.84
2018-09-10T05:11:44.698Z,78.9
2018-09-10T05:12:25.208Z,78.9
2018-09-10T05:13:05.828Z,78.84
2018-09-10T05:13:46.363Z,78.7
2018-09-10T05:14:26.927Z,79.52
2018-09-10T05:15:07.417Z,80.57
2018-09-10T05:15:47.937Z,83.31
2018-09-10T05:16:28.618Z,86
2018-09-10T05:17:09.017Z,87.82
2018-09-10T05:17:49.536Z,89.46
2018-09-10T05:18:30.081Z,89.46
2018-09-10T05:19:10.591Z,88.69
2018-09-10T05:19:51.132Z,89.26
2018-09-10T05:20:31.661Z,89.84
2018-09-10T05:21:12.188Z,90.32
2018-09-10T05:21:53.101Z,91.13
2018-09-10T05:22:33.583Z,91.81
2018-09-10T05:23:14.105Z,92
2018-09-10T05:23:54.651Z,90.66
2018-09-10T05:24:35.197Z,91.19
2018-09-10T05:25:15.741Z,93.25
2018-09-10T05:25:56.254Z,92.14
2018-09-10T05:26:36.783Z,91.86
2018-09-10T05:27:17.288Z,91.71
2018-09-10T05:27:57.831Z,93.15
2018-09-10T05:28:38.337Z,93.63
2018-09-10T05:29:18.834Z,93.15
2018-09-10T05:29:59.367Z,92.67
2018-09-10T05:30:39.879Z,94.4
2018-09-10T05:31:20.399Z,94.78
2018-09-10T05:32:00.934Z,92.96
2018-09-10T05:32:41.455Z,93.25
2018-09-10T05:33:22.364Z,91.81
2018-09-10T05:34:02.836Z,92.19
2018-09-10T05:34:43.382Z,91.71
2018-09-10T05:35:23.908Z,91.42
2018-09-10T05:36:04.429Z,92.29
2018-09-10T05:36:44.954Z,92.57
2018-09-10T05:37:25.469Z,92.38
2018-09-10T05:38:06.199Z,92
2018-09-10T05:38:46.727Z,91.52
2018-09-10T05:39:27.221Z,91.52
2018-09-10T05:40:07.741Z,90.94
2018-09-10T05:40:48.266Z,89.5
2018-09-10T05:41:28.824Z,88.54
2018-09-10T05:42:09.292Z,88.31
2018-09-10T05:42:49.821Z,87.54
2018-09-10T05:43:30.337Z,87.25
2018-09-10T05:44:10.854Z,87.73
2018-09-10T05:44:51.420Z,88.11
2018-09-10T05:45:31.927Z,87.15
2018-09-10T05:46:12.461Z,87.44
2018-09-10T05:46:52.985Z,86.87
2018-09-10T05:47:33.608Z,85.91
2018-09-10T05:48:14.055Z,86.96
2018-09-10T05:48:54.578Z,87.82
2018-09-10T05:49:35.106Z,88.73
2018-09-10T05:50:15.634Z,88.25
2018-09-10T05:50:56.130Z,87.49
2018-09-10T05:51:36.754Z,87.01
2018-09-10T05:52:17.261Z,86.81
2018-09-10T05:52:57.774Z,87.1
2018-09-10T05:53:38.281Z,87.01
2018-09-10T05:54:18.802Z,87.19
2018-09-10T05:54:59.324Z,86.91
2018-09-10T05:55:40.003Z,86.72
2018-09-10T05:56:20.371Z,86.52
2018-09-10T05:57:00.906Z,87.01
2018-09-10T05:57:41.441Z,86.81
2018-09-10T05:58:21.954Z,87.96
2018-09-10T05:59:02.481Z,89.12
2018-09-10T05:59:43.017Z,89.6
2018-09-10T06:00:23.540Z,89.69
2018-09-10T06:01:04.082Z,91.13
2018-09-10T06:01:44.583Z,92.05
2018-09-10T06:02:25.120Z,93.1
2018-09-10T06:03:05.669Z,92.72
2018-09-10T06:03:46.329Z,92.52
2018-09-10T06:04:26.870Z,91.85
2018-09-10T06:05:07.479Z,91.75
2018-09-10T06:05:48.014Z,93.1
2018-09-10T06:06:28.543Z,93.1
2018-09-10T06:07:09.094Z,93.29
2018-09-10T06:07:49.622Z,93.68
2018-09-10T06:08:30.183Z,94.68
2018-09-10T06:09:10.680Z,95.21
2018-09-10T06:09:51.202Z,95.12
2018-09-10T06:10:31.848Z,94.16
2018-09-10T06:11:12.382Z,94.68
2018-09-10T06:11:52.921Z,93.82
2018-09-10T06:12:33.430Z,93.91
2018-09-10T06:13:13.960Z,95.07
2018-09-10T06:13:54.483Z,96.22
2018-09-10T06:14:35.033Z,96.8
2018-09-10T06:15:15.549Z,96.61
2018-09-10T06:15:56.096Z,96.32
2018-09-10T06:16:36.631Z,96.03
2018-09-10T06:17:17.115Z,96.42
2018-09-10T06:17:57.634Z,96.37
2018-09-10T06:18:38.213Z,96.85
2018-09-10T06:19:18.741Z,98.29
2018-09-10T06:19:59.281Z,95.89
2018-09-10T06:20:39.791Z,94.54
2018-09-10T06:21:20.308Z,95.31
2018-09-10T06:22:00.824Z,96.08
2018-09-10T06:22:41.349Z,94.78
2018-09-10T06:23:21.854Z,93.68
2018-09-10T06:24:02.375Z,88.57
2018-09-10T06:24:42.891Z,91.36
2018-09-10T06:25:23.434Z,90.89
2018-09-10T06:26:03.970Z,91.75
2018-09-10T06:26:44.508Z,92.23
2018-09-10T06:27:25.029Z,92.23
2018-09-10T06:28:05.577Z,91.46
2018-09-10T06:28:46.104Z,88.77
2018-09-10T06:29:26.632Z,88.48
2018-09-10T06:30:07.250Z,87.13
2018-09-10T06:30:47.724Z,85.78
2018-09-10T06:31:28.256Z,85.4
2018-09-10T06:32:08.763Z,85.78
2018-09-10T06:32:49.274Z,84.44
2018-09-10T06:33:29.792Z,84.83
2018-09-10T06:34:10.318Z,84.06
2018-09-10T06:34:50.850Z,84.73
2018-09-10T06:35:31.372Z,84.92
2018-09-10T06:36:11.913Z,82.71
2018-09-10T06:36:52.446Z,82.23
2018-09-10T06:37:32.986Z,82.71
2018-09-10T06:38:13.498Z,84.06
2018-09-10T06:38:54.018Z,85.02
2018-09-10T06:39:34.561Z,83.77
2018-09-10T06:40:15.082Z,83.58
2018-09-10T06:40:57.169Z,83.48
2018-09-10T06:41:37.693Z,83.58
2018-09-10T06:42:18.328Z,82.23
2018-09-10T06:42:58.852Z,82.71
2018-09-10T06:43:39.482Z,82.32
2018-09-10T06:44:19.898Z,84.34
2018-09-10T06:45:00.415Z,82.81
2018-09-10T06:45:40.924Z,85.02
2018-09-10T06:46:21.468Z,83.48
2018-09-10T06:47:01.986Z,83.48
2018-09-10T06:47:42.559Z,82.9
2018-09-10T06:48:23.031Z,81.75
2018-09-10T06:49:03.568Z,81.5
2018-09-10T06:49:44.099Z,80.92
2018-09-10T06:50:24.640Z,83.72
2018-09-10T06:51:05.154Z,86.51
2018-09-10T06:51:45.716Z,78.96
2018-09-10T06:52:26.261Z,80.02
2018-09-10T06:53:06.778Z,81.7
2018-09-10T06:53:47.304Z,84
2018-09-10T06:54:27.840Z,85.16
2018-09-10T06:55:08.362Z,83.62
2018-09-10T06:55:48.915Z,83.81
2018-09-10T06:56:30.050Z,85.74
2018-09-10T06:57:10.564Z,84.1
2018-09-10T06:57:51.159Z,84.19
2018-09-10T06:58:31.681Z,87.9
2018-09-10T06:59:12.213Z,84.14
2018-09-10T06:59:52.737Z,88.95
2018-09-10T07:00:33.307Z,87.03
2018-09-10T07:01:13.882Z,91.36
2018-09-10T07:01:54.419Z,93.29
2018-09-10T07:02:34.939Z,82.65
2018-09-10T07:03:15.466Z,81.73
2018-09-10T07:03:56.020Z,86.26
2018-09-10T07:04:36.530Z,90.2
2018-09-10T07:05:17.068Z,90.83
2018-09-10T07:05:57.597Z,85.63
2018-09-10T07:06:38.141Z,83.41
2018-09-10T07:07:18.681Z,79.66
2018-09-10T07:07:59.199Z,86.92
2018-09-10T07:08:39.731Z,84.32
2018-09-10T07:09:20.288Z,86.54
2018-09-10T07:10:00.817Z,92.61
2018-09-10T07:10:41.344Z,90.58
2018-09-10T07:11:21.857Z,89.28
2018-09-10T07:12:02.387Z,92.56
2018-09-10T07:12:42.951Z,92.27
2018-09-10T07:13:23.431Z,88.79
2018-09-10T07:14:03.950Z,89.47
2018-09-10T07:14:44.477Z,87.45
2018-09-10T07:15:24.999Z,87.16
2018-09-10T07:16:05.538Z,91.5
2018-09-10T07:16:46.057Z,92.27
2018-09-10T07:17:26.603Z,90.53
2018-09-10T07:18:07.112Z,88.6
2018-09-10T07:18:47.778Z,88.41
2018-09-10T07:19:28.195Z,89.28
2018-09-10T07:20:08.715Z,88.79
2018-09-10T07:20:49.229Z,82.05
2018-09-10T07:21:29.748Z,87.35
2018-09-10T07:22:10.273Z,88.02
2018-09-10T07:22:50.792Z,85.81
2018-09-10T07:23:31.349Z,85.03
2018-09-10T07:24:11.831Z,82.82
2018-09-10T07:24:52.349Z,80.51
2018-09-10T07:25:32.883Z,76.55
2018-09-10T07:26:13.398Z,83.78
2018-09-10T07:26:53.937Z,84.84
2018-09-10T07:27:34.470Z,84.12
2018-09-10T07:28:14.982Z,82.24
2018-09-10T07:28:55.540Z,78.73
2018-09-10T07:29:36.089Z,77.48
2018-09-10T07:30:16.569Z,79.11
2018-09-10T07:30:57.106Z,77.33
2018-09-10T07:31:37.621Z,81.95
2018-09-10T07:32:18.137Z,84.17
2018-09-10T07:32:58.672Z,83.88
2018-09-10T07:33:39.239Z,83.88
2018-09-10T07:34:19.775Z,83.69
2018-09-10T07:35:00.297Z,80.02
2018-09-10T07:35:40.814Z,73.57
2018-09-10T07:36:21.337Z,79.16
2018-09-10T07:37:01.872Z,78.38
2018-09-10T07:37:42.413Z,79.49
2018-09-10T07:38:22.964Z,83.73
2018-09-10T07:39:03.446Z,84.98
2018-09-10T07:39:43.977Z,88.07
2018-09-10T07:40:24.497Z,87.68
2018-09-10T07:41:05.140Z,87.59
2018-09-10T07:41:45.690Z,89.81
2018-09-10T07:42:26.285Z,84.59
2018-09-10T07:43:06.825Z,85.08
2018-09-10T07:43:47.419Z,87.34
2018-09-10T07:44:27.901Z,86.66
2018-09-10T07:45:08.447Z,88.89
2018-09-10T07:45:48.989Z,89.65
2018-09-10T07:46:29.525Z,85.02
2018-09-10T07:47:10.039Z,87.34
2018-09-10T07:47:50.580Z,83.87
2018-09-10T07:48:31.094Z,82.23
2018-09-10T07:49:11.676Z,85.22
2018-09-10T07:49:52.226Z,79.14
2018-09-10T07:50:32.754Z,80.3
2018-09-10T07:51:13.296Z,83.48
2018-09-10T07:51:53.838Z,87.58
2018-09-10T07:52:34.372Z,83.62
2018-09-10T07:53:14.890Z,82.36
2018-09-10T07:53:55.403Z,84.1
2018-09-10T07:54:36.043Z,78.69
2018-09-10T07:55:16.477Z,84.88
2018-09-10T07:55:57.032Z,86.42
2018-09-10T07:56:37.532Z,87.48
2018-09-10T07:57:18.050Z,87.67
2018-09-10T07:57:58.707Z,78.59
2018-09-10T07:58:39.220Z,74.93
2018-09-10T07:59:19.729Z,80.05
2018-09-10T08:00:00.247Z,78.59
2018-09-10T08:00:40.900Z,79.27
2018-09-10T08:01:21.441Z,82.07
2018-09-10T08:02:01.982Z,75.6
2018-09-10T08:02:42.551Z,73.38
2018-09-10T08:03:23.086Z,73.09
2018-09-10T08:04:03.597Z,74.35
2018-09-10T08:04:44.129Z,73.06
2018-09-10T08:05:24.683Z,73.15
2018-09-10T08:06:05.177Z,72
2018-09-10T08:06:45.705Z,71.51
2018-09-10T08:07:26.238Z,79.24
2018-09-10T08:08:06.774Z,82.61
2018-09-10T08:08:47.263Z,82.51
2018-09-10T08:09:27.905Z,83
2018-09-10T08:10:08.420Z,81.16
2018-09-10T08:10:48.974Z,78.21
2018-09-10T08:11:29.498Z,77.73
2018-09-10T08:12:10.031Z,77.73
2018-09-10T08:12:50.541Z,81.4
2018-09-10T08:13:31.069Z,82.17
2018-09-10T08:14:11.596Z,83.14
2018-09-10T08:14:52.124Z,85.26
2018-09-10T08:15:32.734Z,87.67
2018-09-10T08:16:13.193Z,87.19
2018-09-10T08:16:53.758Z,89.41
2018-09-10T08:17:34.307Z,85.16
2018-09-10T08:18:14.815Z,83.04
2018-09-10T08:18:55.336Z,85.26
2018-09-10T08:19:35.847Z,82.26
2018-09-10T08:20:16.376Z,79.66
2018-09-10T08:20:56.904Z,81.24
2018-09-10T08:21:37.434Z,82.11
2018-09-10T08:22:17.956Z,80.86
2018-09-10T08:22:58.554Z,80.08
2018-09-10T08:23:39.017Z,81.63
2018-09-10T08:24:19.692Z,82.11
2018-09-10T08:25:00.101Z,84.05
2018-09-10T08:25:40.611Z,81.82
2018-09-10T08:26:21.178Z,82.79
2018-09-10T08:27:01.736Z,82.98
2018-09-10T08:27:42.255Z,80.95
2018-09-10T08:28:22.835Z,82.69
2018-09-10T08:29:03.418Z,84.53
2018-09-10T08:29:43.897Z,76.61
2018-09-10T08:30:24.460Z,75.89
2018-09-10T08:31:04.964Z,81.82
2018-09-10T08:31:45.515Z,85.59
2018-09-10T08:32:26.085Z,84.05
2018-09-10T08:33:06.607Z,84.14
2018-09-10T08:33:47.115Z,82.11
2018-09-10T08:34:27.627Z,84.72
2018-09-10T08:35:08.160Z,87.04
2018-09-10T08:35:48.740Z,84.33
2018-09-10T08:36:29.216Z,84.43
2018-09-10T08:37:09.737Z,85.69
2018-09-10T08:37:50.265Z,87.71
2018-09-10T08:38:30.818Z,87.62
2018-09-10T08:39:11.326Z,85.78
2018-09-10T08:39:51.858Z,82.98
2018-09-10T08:40:32.385Z,80.18
2018-09-10T08:41:12.912Z,77.19
2018-09-10T08:41:53.436Z,75.87
2018-09-10T08:42:34.000Z,74.87
2018-09-10T08:43:14.518Z,80.9
2018-09-10T08:43:55.048Z,75.84